createdAt,value
2022-08-10T00:01:51.338Z,70.70
2022-08-10T00:04:21.650Z,70.90
2022-08-10T00:06:50.562Z,71.20
2022-08-10T00:09:20.108Z,70.60
2022-08-10T00:11:48.362Z,70.90
2022-08-10T00:14:16.549Z,71.20
2022-08-10T00:16:44.739Z,71.60
2022-08-10T00:19:12.954Z,72.40
2022-08-10T00:21:44.934Z,72.50
2022-08-10T00:24:13.006Z,72.70
2022-08-10T00:27:51.680Z,73.20
2022-08-10T00:29:31.176Z,72.90
2022-08-10T00:31:59.693Z,73.10
2022-08-10T00:34:28.173Z,73.00
2022-08-10T00:36:56.569Z,73.20
2022-08-10T00:39:24.769Z,73.20
2022-08-10T00:42:07.209Z,73.80
2022-08-10T00:44:37.064Z,73.50
2022-08-10T00:47:05.746Z,73.80
2022-08-10T00:49:34.241Z,74.00
2022-08-10T00:52:03.599Z,74.20
2022-08-10T00:54:32.133Z,74.30
2022-08-10T00:57:16.099Z,74.20
2022-08-10T00:59:58.379Z,74.90
2022-08-10T01:02:28.761Z,74.40
2022-08-10T01:05:00.856Z,75.10
2022-08-10T01:07:55.782Z,75.00
2022-08-10T01:10:34.102Z,75.50
2022-08-10T01:13:10.876Z,75.80
2022-08-10T01:18:39.860Z,76.20
2022-08-10T01:21:54.126Z,76.70
2022-08-10T01:25:00.209Z,76.70
2022-08-10T01:27:33.647Z,76.40
2022-08-10T01:30:06.180Z,76.20
2022-08-10T01:32:47.404Z,76.20
2022-08-10T01:35:21.479Z,76.50
2022-08-10T01:37:59.351Z,77.30
2022-08-10T01:40:29.911Z,77.20
2022-08-10T01:43:08.638Z,77.80
2022-08-10T01:45:45.552Z,77.50
2022-08-10T01:48:30.714Z,77.00
2022-08-10T01:51:16.479Z,77.40
2022-08-10T01:53:52.074Z,77.30
2022-08-10T01:56:22.450Z,77.20
2022-08-10T01:58:56.596Z,77.40
2022-08-10T02:01:29.484Z,77.20
2022-08-10T02:04:05.776Z,77.90
2022-08-10T02:06:39.417Z,78.60
2022-08-10T02:09:08.988Z,79.40
2022-08-10T02:12:06.827Z,79.40
2022-08-10T02:14:33.936Z,79.60
2022-08-10T02:17:07.159Z,79.20
2022-08-10T02:19:37.443Z,78.80
2022-08-10T02:22:38.080Z,78.70
2022-08-10T02:24:56.594Z,78.60
2022-08-10T02:27:27.988Z,79.10
2022-08-10T02:29:57.471Z,79.10
2022-08-10T02:32:35.977Z,79.40
2022-08-10T02:35:13.942Z,79.60
2022-08-10T02:37:53.883Z,79.60
2022-08-10T02:45:12.665Z,79.60
2022-08-10T02:45:22.693Z,79.40
2022-08-10T02:46:14.135Z,79.90
2022-08-10T02:48:51.361Z,79.80
2022-08-10T02:52:06.747Z,80.10
2022-08-10T02:54:19.967Z,80.80
2022-08-10T02:56:54.901Z,81.40
2022-08-10T02:59:40.050Z,80.90
2022-08-10T03:02:12.994Z,81.30
2022-08-10T03:04:56.068Z,81.50
2022-08-10T03:07:44.609Z,81.10
2022-08-10T03:10:18.550Z,82.30
2022-08-10T03:12:50.939Z,82.40
2022-08-10T03:15:21.926Z,82.40
2022-08-10T03:17:58.207Z,83.70
2022-08-10T03:20:38.311Z,83.00
2022-08-10T03:23:12.418Z,83.30
2022-08-10T03:25:40.970Z,83.50
2022-08-10T03:28:22.251Z,83.90
2022-08-10T03:30:51.089Z,83.90
2022-08-10T03:33:21.519Z,83.10
2022-08-10T03:36:42.644Z,82.70
2022-08-10T03:38:40.897Z,83.20
2022-08-10T03:41:15.898Z,83.00
2022-08-10T03:43:47.824Z,83.30
2022-08-10T03:46:20.134Z,82.70
2022-08-10T03:48:52.365Z,82.90
2022-08-10T03:51:23.966Z,82.70
2022-08-10T03:54:06.192Z,82.50
2022-08-10T03:56:37.583Z,82.70
2022-08-10T03:59:07.213Z,82.50
2022-08-10T04:02:46.314Z,82.50
2022-08-10T04:04:25.404Z,82.80
2022-08-10T04:06:57.424Z,82.60
2022-08-10T04:09:43.359Z,83.00
2022-08-10T04:12:16.141Z,83.10
2022-08-10T04:14:49.960Z,83.20
2022-08-10T04:17:57.213Z,83.40
2022-08-10T04:20:18.764Z,83.20
2022-08-10T04:22:52.052Z,83.60
2022-08-10T04:25:22.163Z,83.80
2022-08-10T04:27:51.868Z,83.80
2022-08-10T04:30:20.313Z,83.70
2022-08-10T04:32:55.552Z,83.80
2022-08-10T04:35:27.234Z,83.60
2022-08-10T04:37:59.003Z,83.50
2022-08-10T04:40:30.299Z,83.70
2022-08-10T04:43:04.444Z,83.70
2022-08-10T04:45:49.471Z,83.60
2022-08-10T04:48:43.065Z,83.30
2022-08-10T04:51:16.046Z,83.20
2022-08-10T04:54:04.664Z,83.40
2022-08-10T04:56:35.427Z,83.30
2022-08-10T04:59:05.161Z,83.30
2022-08-10T05:02:22.776Z,83.30
2022-08-10T05:04:35.131Z,83.20
2022-08-10T05:07:06.237Z,83.40
2022-08-10T05:10:02.996Z,82.80
2022-08-10T05:12:24.436Z,82.70
2022-08-10T05:14:54.575Z,82.50
2022-08-10T05:17:23.625Z,82.40
2022-08-10T05:20:01.504Z,82.20
2022-08-10T05:22:33.590Z,82.10
2022-08-10T05:25:03.105Z,81.90
2022-08-10T05:27:31.175Z,81.80
2022-08-10T05:30:02.485Z,81.40
2022-08-10T05:32:31.542Z,81.20
2022-08-10T05:34:59.790Z,81.00
2022-08-10T05:38:11.543Z,80.90
2022-08-10T05:40:20.047Z,80.70
2022-08-10T05:42:48.132Z,80.50
2022-08-10T05:45:21.947Z,80.20
2022-08-10T05:48:57.115Z,80.00
2022-08-10T05:50:38.394Z,79.80
2022-08-10T05:53:59.923Z,79.60
2022-08-10T05:55:56.362Z,79.20
2022-08-10T05:58:24.791Z,78.90
2022-08-10T06:00:55.733Z,78.60
2022-08-10T06:03:28.144Z,78.20
2022-08-10T06:05:57.958Z,78.00
2022-08-10T06:08:30.422Z,77.70
2022-08-10T06:12:27.615Z,77.20
2022-08-10T06:14:12.861Z,76.80
2022-08-10T06:16:45.164Z,76.70
2022-08-10T06:19:14.726Z,76.30
2022-08-10T06:22:01.035Z,75.50
2022-08-10T06:24:31.244Z,74.70
2022-08-10T06:27:00.923Z,73.80
2022-08-10T06:29:33.147Z,73.50
2022-08-10T06:32:02.225Z,71.80
2022-08-10T06:34:33.758Z,71.30
2022-08-10T06:37:04.663Z,70.30
2022-08-10T06:39:35.244Z,69.70
2022-08-10T06:42:15.160Z,69.20
2022-08-10T06:44:53.616Z,68.10
2022-08-10T06:47:26.412Z,67.40
2022-08-10T06:50:01.623Z,66.90
2022-08-10T06:52:34.999Z,66.20
2022-08-10T06:55:05.447Z,65.70
2022-08-10T06:57:39.993Z,65.30
2022-08-10T07:00:09.916Z,63.90
2022-08-10T07:02:44.146Z,63.30
2022-08-10T07:05:18.263Z,62.80
2022-08-10T07:07:48.766Z,62.20
2022-08-10T07:10:20.646Z,61.40
2022-08-10T07:12:56.232Z,61.40
2022-08-10T07:15:57.226Z,60.60
2022-08-10T07:18:15.128Z,60.00
2022-08-10T07:20:46.556Z,59.60
2022-08-10T07:23:57.394Z,60.10
2022-08-10T07:26:04.867Z,59.90
2022-08-10T07:28:35.792Z,60.00
2022-08-10T07:31:04.799Z,60.00
2022-08-10T07:33:55.443Z,59.90
2022-08-10T07:36:24.786Z,59.20
2022-08-10T07:38:56.161Z,58.50
2022-08-10T07:41:27.088Z,56.80
2022-08-10T07:43:57.961Z,56.60
2022-08-10T07:46:29.357Z,56.40
2022-08-10T07:49:17.012Z,56.20
2022-08-10T07:51:54.507Z,55.90
2022-08-10T07:54:26.268Z,55.10
2022-08-10T07:57:00.603Z,54.20
2022-08-10T07:59:37.401Z,53.30
2022-08-10T08:02:09.819Z,53.20
2022-08-10T08:04:38.592Z,52.50
2022-08-10T08:07:08.722Z,51.70
2022-08-10T08:09:38.792Z,51.90
2022-08-10T08:12:28.127Z,52.40
2022-08-10T08:14:59.737Z,52.30
2022-08-10T08:17:35.570Z,51.10
2022-08-10T08:20:07.379Z,50.60
2022-08-10T08:24:06.421Z,50.10
2022-08-10T08:25:27.039Z,50.70
2022-08-10T08:27:58.224Z,50.60
2022-08-10T08:30:28.378Z,49.80
2022-08-10T08:32:57.528Z,49.70
2022-08-10T08:35:27.124Z,49.60
2022-08-10T08:38:31.708Z,49.20
2022-08-10T08:40:51.543Z,48.60
2022-08-10T08:43:47.368Z,48.60
2022-08-10T08:46:43.493Z,49.20
2022-08-10T08:50:07.787Z,48.40
2022-08-10T08:52:33.203Z,48.90
2022-08-10T08:56:04.581Z,47.50
2022-08-10T08:58:17.645Z,47.20
2022-08-10T09:00:53.046Z,46.30
2022-08-10T09:03:42.082Z,46.20
2022-08-10T09:06:23.196Z,45.60
2022-08-10T09:09:10.856Z,45.60
2022-08-10T09:11:51.823Z,45.60
2022-08-10T09:14:26.770Z,45.10
2022-08-10T09:17:00.810Z,45.20
2022-08-10T09:19:39.520Z,45.10
2022-08-10T09:22:19.343Z,44.60
2022-08-10T09:24:55.282Z,44.50
2022-08-10T09:27:27.283Z,44.90
2022-08-10T09:29:57.389Z,44.30
2022-08-10T09:36:15.516Z,44.30
2022-08-10T09:36:22.449Z,43.60
2022-08-10T09:38:43.749Z,43.70
2022-08-10T09:41:23.503Z,43.70
2022-08-10T09:44:01.910Z,43.00
2022-08-10T09:46:43.445Z,42.50
2022-08-10T09:49:25.084Z,42.00
2022-08-10T09:52:12.387Z,41.40
2022-08-10T09:55:01.233Z,41.50
2022-08-10T09:57:44.960Z,41.90
2022-08-10T10:00:27.606Z,41.20
2022-08-10T10:03:17.768Z,41.30
2022-08-10T10:05:54.181Z,41.60
2022-08-10T10:08:33.441Z,42.50
2022-08-10T10:11:10.643Z,41.60
2022-08-10T10:14:02.005Z,41.60
2022-08-10T10:16:58.153Z,39.70
2022-08-10T10:19:40.479Z,41.10
2022-08-10T10:22:26.149Z,40.00
2022-08-10T10:25:19.645Z,39.90
2022-08-10T10:27:59.176Z,40.00
2022-08-10T10:30:32.338Z,40.00
2022-08-10T10:33:13.265Z,40.30
2022-08-10T10:35:47.952Z,39.80
2022-08-10T10:38:18.367Z,39.50
2022-08-10T10:40:56.080Z,38.90
2022-08-10T10:43:41.660Z,38.80
2022-08-10T10:46:23.170Z,38.40
2022-08-10T10:49:01.652Z,38.60
2022-08-10T10:51:35.104Z,38.90
2022-08-10T10:54:13.091Z,39.00
2022-08-10T10:56:56.580Z,39.10
2022-08-10T10:59:54.936Z,38.70
2022-08-10T11:02:33.084Z,38.60
2022-08-10T11:05:14.864Z,38.70
2022-08-10T11:07:53.399Z,38.00
2022-08-10T11:10:32.897Z,38.00
2022-08-10T11:14:25.004Z,38.10
2022-08-10T11:16:09.829Z,36.60
2022-08-10T11:18:49.667Z,37.30
2022-08-10T11:21:25.805Z,37.70
2022-08-10T11:24:46.922Z,37.60
2022-08-10T11:26:58.857Z,37.30
2022-08-10T11:29:34.704Z,37.50
2022-08-10T11:32:07.948Z,36.40
2022-08-10T11:35:10.989Z,36.40
2022-08-10T11:38:30.962Z,36.60
2022-08-10T11:40:43.369Z,36.60
2022-08-10T11:43:19.152Z,37.10
2022-08-10T11:45:55.848Z,37.00
2022-08-10T11:48:53.988Z,37.00
2022-08-10T11:51:27.666Z,36.90
2022-08-10T11:54:05.116Z,37.20
2022-08-10T11:56:40.523Z,37.60
2022-08-10T11:59:27.261Z,37.60
2022-08-10T12:01:58.077Z,37.30
2022-08-10T12:04:27.014Z,37.00
2022-08-10T12:06:56.586Z,37.20
2022-08-10T12:10:05.376Z,37.00
2022-08-10T12:12:16.529Z,37.20
2022-08-10T12:14:51.583Z,37.00
2022-08-10T12:17:26.276Z,37.20
2022-08-10T12:20:02.295Z,36.70
2022-08-10T12:22:37.067Z,36.50
2022-08-10T12:25:09.567Z,36.10
2022-08-10T12:27:41.702Z,35.60
2022-08-10T12:30:12.266Z,34.70
2022-08-10T12:32:46.634Z,34.40
2022-08-10T12:35:26.005Z,34.20
2022-08-10T12:38:06.458Z,34.20
2022-08-10T12:40:41.047Z,35.00
2022-08-10T12:44:06.332Z,34.40
2022-08-10T12:46:10.804Z,33.90
2022-08-10T12:48:51.330Z,33.40
2022-08-10T12:51:23.181Z,32.90
2022-08-10T12:53:58.006Z,33.50
2022-08-10T12:56:28.719Z,33.60
2022-08-10T12:59:01.417Z,34.40
2022-08-10T13:02:10.683Z,34.00
2022-08-10T13:04:29.834Z,32.70
2022-08-10T13:07:01.620Z,31.60
2022-08-10T13:09:30.763Z,32.10
2022-08-10T13:12:35.355Z,31.90
2022-08-10T13:14:56.070Z,32.60
2022-08-10T13:17:38.576Z,33.10
2022-08-10T13:20:19.440Z,33.00
2022-08-10T13:22:50.231Z,33.60
2022-08-10T13:25:22.655Z,33.70
2022-08-10T13:28:02.873Z,34.00
2022-08-10T13:30:41.345Z,34.50
2022-08-10T13:33:11.971Z,34.30
2022-08-10T13:35:45.163Z,34.50
2022-08-10T13:38:16.227Z,34.20
2022-08-10T13:40:49.889Z,34.60
2022-08-10T13:43:20.058Z,34.30
2022-08-10T13:45:50.165Z,34.40
2022-08-10T13:48:21.640Z,34.80
2022-08-10T13:50:57.438Z,33.50
2022-08-10T13:53:31.195Z,31.90
2022-08-10T13:56:00.779Z,29.90
2022-08-10T13:58:31.691Z,29.50
2022-08-10T14:01:01.355Z,29.00
2022-08-10T14:03:35.409Z,28.70
2022-08-10T14:06:06.847Z,27.80
2022-08-10T14:08:36.114Z,27.50
2022-08-10T14:11:11.696Z,27.10
2022-08-10T14:13:47.400Z,26.50
2022-08-10T14:16:16.633Z,26.80
2022-08-10T14:18:46.017Z,27.60
2022-08-10T14:21:16.369Z,26.80
2022-08-10T14:23:52.122Z,26.70
2022-08-10T14:26:25.186Z,26.40
2022-08-10T14:28:56.196Z,26.20
2022-08-10T14:31:30.105Z,26.30
2022-08-10T14:34:00.514Z,26.20
2022-08-10T14:36:39.264Z,26.20
2022-08-10T14:39:09.340Z,26.10
2022-08-10T14:42:01.330Z,26.50
2022-08-10T14:44:31.874Z,25.60
2022-08-10T14:47:08.439Z,25.60
2022-08-10T14:49:57.210Z,25.50
2022-08-10T14:52:30.617Z,26.10
2022-08-10T14:55:04.771Z,26.50
2022-08-10T14:58:19.945Z,27.10
2022-08-10T15:00:33.049Z,27.50
2022-08-10T15:03:10.821Z,28.10
2022-08-10T15:05:53.506Z,28.80
2022-08-10T15:08:36.868Z,29.00
2022-08-10T15:11:07.327Z,29.10
2022-08-10T15:13:36.637Z,28.50
2022-08-10T15:16:13.088Z,28.10
2022-08-10T15:18:58.197Z,27.90
2022-08-10T15:21:35.609Z,27.30
2022-08-10T15:24:37.986Z,27.20
2022-08-10T15:27:10.074Z,26.40
2022-08-10T15:29:56.936Z,26.30
2022-08-10T15:32:52.103Z,26.00
2022-08-10T15:35:39.664Z,26.20
2022-08-10T15:38:09.456Z,25.90
2022-08-10T15:40:51.205Z,26.00
2022-08-10T15:43:25.886Z,25.80
2022-08-10T15:46:04.105Z,25.60
2022-08-10T15:48:40.466Z,25.60
2022-08-10T15:51:18.069Z,25.60
2022-08-10T15:53:51.618Z,25.80
2022-08-10T15:56:28.703Z,25.70
2022-08-10T15:59:08.282Z,25.90
2022-08-10T16:02:14.482Z,25.90
2022-08-10T16:04:34.045Z,25.70
2022-08-10T16:07:06.164Z,25.70
2022-08-10T16:10:24.031Z,25.80
2022-08-10T16:12:35.529Z,26.10
2022-08-10T16:15:10.666Z,26.20
2022-08-10T16:17:54.699Z,26.30
2022-08-10T16:20:28.508Z,26.30
2022-08-10T16:23:03.175Z,26.40
2022-08-10T16:25:47.888Z,26.60
2022-08-10T16:28:24.210Z,26.60
2022-08-10T16:30:55.884Z,26.70
2022-08-10T16:33:52.955Z,26.80
2022-08-10T16:36:19.349Z,26.90
2022-08-10T16:38:50.333Z,26.70
2022-08-10T16:42:04.505Z,26.90
2022-08-10T16:44:12.181Z,27.00
2022-08-10T16:46:44.795Z,26.80
2022-08-10T16:49:14.125Z,26.80
2022-08-10T16:51:47.607Z,26.80
2022-08-10T16:54:18.192Z,26.80
2022-08-10T16:56:49.641Z,27.00
2022-08-10T16:59:24.403Z,27.10
2022-08-10T17:01:54.450Z,27.10
2022-08-10T17:04:24.408Z,27.20
2022-08-10T17:06:56.511Z,27.40
2022-08-10T17:09:27.714Z,27.20
2022-08-10T17:11:59.207Z,27.20
2022-08-10T17:14:30.189Z,27.40
2022-08-10T17:17:01.384Z,27.70
2022-08-10T17:19:35.962Z,27.90
2022-08-10T17:22:11.836Z,28.00
2022-08-10T17:24:49.363Z,27.90
2022-08-10T17:28:05.262Z,28.10
2022-08-10T17:30:16.127Z,28.40
2022-08-10T17:33:06.415Z,28.60
2022-08-10T17:35:38.021Z,28.30
2022-08-10T17:38:10.441Z,28.40
2022-08-10T17:40:47.446Z,28.80
2022-08-10T17:43:58.223Z,29.50
2022-08-10T17:46:12.927Z,29.40
2022-08-10T17:48:43.265Z,29.80
2022-08-10T17:51:15.452Z,29.80
2022-08-10T17:53:45.854Z,29.60
2022-08-10T17:56:15.233Z,29.90
2022-08-10T17:58:50.293Z,30.30
2022-08-10T18:01:40.948Z,30.60
2022-08-10T18:04:16.133Z,30.30
2022-08-10T18:06:44.850Z,30.80
2022-08-10T18:09:26.024Z,31.60
2022-08-10T18:12:00.264Z,32.50
2022-08-10T18:14:30.988Z,33.30
2022-08-10T18:17:07.910Z,34.20
2022-08-10T18:19:36.820Z,35.00
2022-08-10T18:22:05.432Z,35.30
2022-08-10T18:24:37.729Z,36.10
2022-08-10T18:27:07.822Z,36.50
2022-08-10T18:29:39.892Z,36.40
2022-08-10T18:32:11.181Z,37.80
2022-08-10T18:34:41.854Z,38.20
2022-08-10T18:37:19.985Z,38.80
2022-08-10T18:39:51.382Z,39.30
2022-08-10T18:42:23.011Z,40.10
2022-08-10T18:45:02.148Z,40.60
2022-08-10T18:47:36.369Z,41.10
2022-08-10T18:50:10.031Z,41.30
2022-08-10T18:52:41.993Z,42.20
2022-08-10T18:55:22.993Z,42.50
2022-08-10T18:58:31.599Z,42.80
2022-08-10T19:01:34.215Z,43.10
2022-08-10T19:04:19.212Z,43.30
2022-08-10T19:07:05.953Z,44.00
2022-08-10T19:09:47.718Z,44.30
2022-08-10T19:12:33.298Z,44.70
2022-08-10T19:15:10.055Z,45.60
2022-08-10T19:18:03.485Z,45.40
2022-08-10T19:20:40.411Z,45.80
2022-08-10T19:23:18.804Z,46.60
2022-08-10T19:26:42.996Z,46.10
2022-08-10T19:28:55.210Z,47.00
2022-08-10T19:31:45.039Z,47.70
2022-08-10T19:34:24.383Z,47.20
2022-08-10T19:37:05.091Z,47.60
2022-08-10T19:39:51.099Z,47.80
2022-08-10T19:42:30.979Z,47.80
2022-08-10T19:45:07.611Z,48.60
2022-08-10T19:47:39.542Z,48.70
2022-08-10T19:50:13.591Z,48.10
2022-08-10T19:52:50.447Z,48.90
2022-08-10T19:55:26.955Z,48.90
2022-08-10T19:57:59.762Z,49.10
2022-08-10T20:00:38.375Z,49.50
2022-08-10T20:03:17.922Z,49.60
2022-08-10T20:06:19.424Z,49.90
2022-08-10T20:08:48.437Z,50.40
2022-08-10T20:11:45.987Z,50.70
2022-08-10T20:14:21.602Z,50.90
2022-08-10T20:16:53.551Z,50.90
2022-08-10T20:19:53.596Z,51.10
2022-08-10T20:22:28.693Z,51.70
2022-08-10T20:25:07.357Z,51.70
2022-08-10T20:28:00.709Z,51.70
2022-08-10T20:30:30.428Z,51.70
2022-08-10T20:33:05.247Z,51.80
2022-08-10T20:35:47.351Z,52.20
2022-08-10T20:38:22.108Z,52.40
2022-08-10T20:41:04.015Z,53.00
2022-08-10T20:43:42.008Z,52.90
2022-08-10T20:46:22.206Z,53.70
2022-08-10T20:48:57.110Z,53.70
2022-08-10T20:51:59.118Z,53.70
2022-08-10T20:54:22.775Z,53.40
2022-08-10T20:57:54.653Z,53.80
2022-08-10T21:00:10.945Z,53.50
2022-08-10T21:03:21.048Z,53.90
2022-08-10T21:06:00.798Z,54.20
2022-08-10T21:08:39.200Z,54.00
2022-08-10T21:11:15.271Z,53.90
2022-08-10T21:14:06.568Z,54.00
2022-08-10T21:17:00.978Z,54.20
2022-08-10T21:19:53.969Z,54.20
2022-08-10T21:22:29.308Z,54.20
2022-08-10T21:25:03.078Z,55.00
2022-08-10T21:28:08.220Z,54.20
2022-08-10T21:30:53.125Z,54.00
2022-08-10T21:33:31.816Z,54.10
2022-08-10T21:36:09.612Z,54.10
2022-08-10T21:38:48.435Z,54.20
2022-08-10T21:41:57.902Z,54.20
2022-08-10T21:45:04.081Z,54.20
2022-08-10T21:48:17.925Z,54.40
2022-08-10T21:51:16.493Z,54.20
2022-08-10T21:54:18.184Z,54.60
2022-08-10T21:57:12.189Z,54.40
2022-08-10T22:00:05.303Z,54.60
2022-08-10T22:02:59.871Z,54.60
2022-08-10T22:05:49.252Z,54.50
2022-08-10T22:08:40.859Z,54.70
2022-08-10T22:11:37.377Z,54.80
2022-08-10T22:14:26.361Z,55.00
2022-08-10T22:17:59.524Z,54.90
2022-08-10T22:20:32.745Z,55.00
2022-08-10T22:23:36.405Z,55.40
2022-08-10T22:26:34.017Z,55.30
2022-08-10T22:29:42.271Z,55.60
2022-08-10T22:32:41.235Z,55.30
2022-08-10T22:35:49.542Z,55.50
2022-08-10T22:38:44.244Z,56.10
2022-08-10T22:41:40.614Z,56.70
2022-08-10T22:44:29.729Z,56.50
2022-08-10T22:47:16.671Z,56.40
2022-08-10T22:49:43.911Z,56.60
2022-08-10T22:52:17.899Z,57.30
2022-08-10T22:55:08.316Z,57.40
2022-08-10T22:57:53.910Z,57.60
2022-08-10T23:00:31.320Z,58.20
2022-08-10T23:03:07.685Z,58.10
2022-08-10T23:05:37.883Z,58.80
2022-08-10T23:08:19.624Z,58.80
2022-08-10T23:11:05.122Z,59.60
2022-08-10T23:13:36.894Z,59.80
2022-08-10T23:16:26.899Z,60.20
2022-08-10T23:19:09.485Z,60.20
2022-08-10T23:22:03.343Z,60.50
2022-08-10T23:24:37.154Z,60.60
2022-08-10T23:27:12.746Z,61.00
2022-08-10T23:30:03.786Z,61.00
2022-08-10T23:32:41.715Z,60.80
2022-08-10T23:36:31.444Z,61.00
2022-08-10T23:38:04.413Z,61.10
2022-08-10T23:40:34.542Z,61.40
2022-08-10T23:43:04.376Z,61.20
2022-08-10T23:45:53.878Z,61.30
2022-08-10T23:48:24.323Z,61.60
2022-08-10T23:50:59.496Z,62.40
2022-08-10T23:53:30.836Z,61.70
2022-08-10T23:56:02.900Z,62.20
2022-08-10T23:58:42.154Z,62.30
